< < Back
Terminal Aerodrome Forecast


Current Version              Previous Versions:   1  2  3  4  5  6  7  8  9  

Terminal Aerodrome Forecast

109
FTUS42 KTAE 292320
TAFDHN
TAF
KDHN 292320Z 3000/3024 23006KT P6SM FEW070 SCT250
     FM301800 25010KT P6SM VCTS SCT050CB=

Latest METAR

561
SAUS70 KWBC 300800 RRE
MTRDHN
METAR KDHN 300753Z 21005KT 10SM CLR 23/22 A3007 RMK AO2 SLP174
T02280217


USA.gov is the U.S. government's official web portal to all federal, state and local government web resources and services.